Terminal Aerodrome Forecast
Issued by NWS

Home | Current Version | Previous Version | Text Only | Print | Product List | Glossary On
Versions: 1 2 3 4 5 6 7 8 9 10 11 12 13 14 15 16 17
000
FTUS43 KMQT 262300
TAFSAW
TAF
KSAW 262325Z 2700/2724 28003KT P6SM -SHSN BKN035
     FM270300 36012G22KT 1SM -SHSN BLSN OVC010
      TEMPO 2703/2706 3/4SM -SHSN BLSN OVC007
     FM271000 34010G20KT 3SM -SHSN OVC015
     FM271300 34010KT P6SM -SHSN BKN025
     FM272100 33008KT P6SM BKN035
      AMD LTD TO CLD VIS AND WIND 2703/2711=

USA.gov is the U.S. government's official web portal to all federal, state and local government web resources and services.